Pagina principale
METAR-TAF:

METAR-TAF

Aeroporti :

Aeroporto di Perugia

Perugia, Italia

latitudine: 43-05N, longitudine: 012-30E, altezza: 208 m

Osservazione

Il bollettino è stato emesso 26 minuti fa, alle 15:50 UTC
Vento 11 kt da sud-est
Temperature 25°C
Umidità 54%
Pressione 1016 hPa
Visibilità 10 km o più
Nubi sparse ad un'altezza di 5000 ft

METAR: LIRZ 181550Z 14011KT 9999 SCT050 25/15 Q1016

Ora: 18:16 (16:16 UTC)

Previsione

Il bollettino è stato emesso 5 ore e 16 minuti fa, alle 11:00 UTC
Previsione valida dal 18 alle 12 UTC al 19 alle 12 UTC
Vento 10 kt da nord/nord-est
Visibilità 10 km o più
Nubi sparse ad un'altezza di 4000 ft
Evoluzione graduale
dal 18 alle 16 UTC al 18 alle 18 UTC
Vento 5 kt da direzioni variabili
Evoluzione graduale
dal 19 alle 08 UTC al 19 alle 10 UTC
Vento 10 kt da nord/nord-est

TAF: LIRZ 181100Z 1812/1912 03010KT 9999 SCT040 BECMG 1816/1818 VRB05KT BECMG 1908/1910 03010KT

Osservazioni e previsioni meteorologiche di più di 4000 aeroporti (messaggi METAR e TAF).

Le stazioni disponibili sono rappresentate dai dischi gialli e rossi sulla carta.

Puntare il mouse per vedere il nome della stazione.

Clicca sopra per visualizzare le osservazioni e previsioni meteorologiche.

Per cambiare la mappa : fare clic sui pulsanti verdi con una croce nera per ingrandire, il pulsante verde con un trattino per diminuire, o sulla freccia verde per le mappe adiacenti.


METAR-TAF: